Chisholm-Hibbing Airport

Date: 2024-06-11 12:53:00Z

Type: METAR

Weather: Heavy Rain

Winds: 130° at 4 kts

Visibility: 1.5

Ceiling (AGL FT): Clouds OVERCAST at 4200, BROKEN at 2300, OVERCAST at 2900, OVERCAST at 25000

RAW METAR: KHIB 111253Z AUTO 13004KT 1 1/2SM +RA BR OVC042 09/08 A2983 RMK AO2 SLP104 P0018 T00890083

project-image